Terminal Aerodrome Forecast
Issued by NWS Charleston, WV

Current Version | Previous Version | Graphics & Text | Print | Product List | Glossary On
Versions: 1 2 3 4 5 6 7 8 9 10 11 12 13 14 15 16 17 18 19 20 21 22 23 24 25
462
FTUS41 KRLX 101120
TAFCRW
TAF
KCRW 101120Z 1012/1112 26010G18KT 6SM -SHSN OVC035
      TEMPO 1012/1016 3SM -SHSN SCT015 OVC025
     FM101600 26009KT P6SM -SHSN OVC035
      TEMPO 1016/1020 2SM -SHSN SCT015 OVC025
     FM102000 26009KT P6SM -SHSN OVC035
     FM102200 26009KT P6SM OVC035
     FM110300 26010G19KT P6SM BKN025
     FM111000 26007KT P6SM BKN035=

USA.gov is the U.S. government's official web portal to all federal, state and local government web resources and services.